Relevés horaires Melle (Belgique)


Relevés horaires à Melle - Samedi 07 Nov. 2015
Heure UTC1 Température [°C] Vent [km/h] Hum. [%] Pres.4 [hPa] Visi. [Km] Nébu. [octa] Préc.5 [mm] Cond.
2m. Res. Ros. Dir.2 Vit. Moy. Raf.3
23:00 14.3 14.2 12.1 O 7.4 9.3 13.0 87 1027.7(3.2/3h) -- -- -- --
22:00 14.2 14.2 12.0 OSO 5.6 9.3 13.0 87 1026.1(2.6/3h) -- -- -- --
21:00 15.6 15.6 13.1 OSO 7.4 14.8 24.1 85 1025.3(3.1/3h) -- -- -- --
20:00 16.6 16.6 13.8 OSO 9.3 13.0 20.4 84 1024.5(3.1/3h) -- -- -- --
19:00 17.1 17 15.0 OSO 11.1 14.8 24.1 87 1023.5(2.4/3h) -- -- -- --
18:00 18.4 18.4 15.8 SO 11.1 13.0 20.4 85 1022.2(1.0/3h) -- -- 0.2/12h
--
17:00 19.0 19.0 15.9 SSO 11.1 13.0 18.5 82 1021.4(-0.1/3h) -- -- -- --
16:00 18.9 18.9 15.8 SSO 11.1 13.0 18.5 82 1021.1(-0.3/3h) -- -- -- --
15:00 19.0 19.0 15.8 SSO 9.3 13.0 18.5 82 1021.2(-0.8/3h) -- -- -- --
14:00 18.8 18.8 15.7 SSO 11.1 13.0 18.5 82 1021.5(-0.7/3h) -- -- -- --
13:00 19.4 19.4 15.8 SSO 11.1 11.1 16.7 80 1021.4(-1.0/3h) -- -- -- --
12:00 19.3 19.3 15.8 SO 9.3 11.1 16.7 80 1022(-1.0/3h) -- -- 0/0h
0/6h
--
11:00 18.7 18.7 15.5 SSO 11.1 11.1 16.7 82 1022.2(-0.8/3h) -- -- -- --
10:00 17.6 17.6 15.3 SSO 9.3 11.1 16.7 86 1022.4(-0.5/3h) -- -- -- --
09:00 17.2 17.2 15.2 SSO 9.3 11.1 16.7 88 1023(0.1/3h) -- -- -- --
08:00 17.1 17.1 15.4 SSO 7.4 7.4 13.0 90 1023(0.0/3h) -- -- -- --
07:00 16.9 16.9 15.3 SSO 7.4 7.4 13.0 90 1022.9(0.4/3h) -- -- -- --
06:00 16.7 16.7 15.3 SSO 5.6 9.3 13.0 91 1022.9(0.6/3h) -- -- 0.3/12h
--
05:00 16.6 16.6 15.1 SO 3.7 5.6 7.4 91 1023(0.6/3h) -- -- -- --
04:00 16.7 16.7 15.0 SO 5.6 7.4 9.3 90 1022.5(0.4/3h) -- -- -- --
03:00 16.9 16.9 15.1 OSO 5.6 9.3 13.0 89 1022.3(0.4/3h) -- -- -- --
02:00 16.9 16.9 15.5 SO 5.6 7.4 11.1 91 1022.4(0.7/3h) -- -- -- --
01:00 16.9 16.9 15.8 SO 5.6 9.3 13.0 93 1022.1(0.6/3h) -- -- -- --
00:00 16.9 16.9 15.7 SO 7.4 11.1 16.7 93 1021.9(0.8/3h) -- -- 0.2/6h
--

1 Coordinated Universal Time. Actuellement il est 11:00 locale et 09:00 UTC.

2 Le vent souffle depuis la direction indiquée vers la direction oposée.

3 Les rafales max. sont disponible 40 min après l'heure du relevé.

4 Pour les stations d'altitude (plus de 600m) le géopotentiel du niveau le plus proche de la pression obligatoire est indiqué.

5 Les stations disposant d'un diffuseur peuvent indiquer "trace". Cela signifie que des précipitations ont touchés le sol mais que la quantité est inférieure à 0.1 mm.

Récapitulatif de la journée
Température [°C] Vent [km/h] Ensoleillement4 [h] Precipitations totale5 [mm] Pression [Hpa]
Min1 Max.2 Moy.3 Max. Min Max.
16.5 20.0 10.7 24.1 0 h 0 min 0 1021.1 1027.7

1 Température minimale relevée entre 18:00 UTC la veille et 18:00 UTC le jour donné.

2 Température maximale relevée entre 06:00 UTC le jour donné et 06:00 UTC le lendemain.

3 Vent moyen de la journée basé sur les relevés horaires.

4 Ensoleillement en heures relevé entre 06:00 UTC la veille et 06:00 UTC le jour donné.

5 Précipitations totales tombées entre 06:00 UTC la jour donné et 06:00 UTC le lendemain.

Graphiques horaires